sensor_id;sensor_type;location;lat;lon;timestamp;temperature;humidity
24518;DHT22;12678;51.336;12.406;2023-05-07T00:01:59;10.10;99.90
24518;DHT22;12678;51.336;12.406;2023-05-07T00:04:25;10.20;99.90
24518;DHT22;12678;51.336;12.406;2023-05-07T00:06:50;10.10;99.90
24518;DHT22;12678;51.336;12.406;2023-05-07T00:09:16;10.00;99.90
24518;DHT22;12678;51.336;12.406;2023-05-07T00:11:42;9.90;99.90
24518;DHT22;12678;51.336;12.406;2023-05-07T00:14:08;10.00;99.90
24518;DHT22;12678;51.336;12.406;2023-05-07T00:16:33;10.00;99.90
24518;DHT22;12678;51.336;12.406;2023-05-07T00:19:00;10.00;99.90
24518;DHT22;12678;51.336;12.406;2023-05-07T00:21:25;10.00;99.90
24518;DHT22;12678;51.336;12.406;2023-05-07T00:23:54;9.90;99.90
24518;DHT22;12678;51.336;12.406;2023-05-07T00:26:20;9.90;99.90
24518;DHT22;12678;51.336;12.406;2023-05-07T00:28:46;9.90;99.90
24518;DHT22;12678;51.336;12.406;2023-05-07T00:31:11;9.90;99.90
24518;DHT22;12678;51.336;12.406;2023-05-07T00:33:38;9.90;99.90
24518;DHT22;12678;51.336;12.406;2023-05-07T00:36:03;9.90;99.90
24518;DHT22;12678;51.336;12.406;2023-05-07T00:38:29;9.90;99.90
24518;DHT22;12678;51.336;12.406;2023-05-07T00:40:55;9.90;99.90
24518;DHT22;12678;51.336;12.406;2023-05-07T00:43:21;9.80;99.90
24518;DHT22;12678;51.336;12.406;2023-05-07T00:45:46;9.80;99.90
24518;DHT22;12678;51.336;12.406;2023-05-07T00:48:13;9.90;99.90
24518;DHT22;12678;51.336;12.406;2023-05-07T00:50:39;10.00;99.90
24518;DHT22;12678;51.336;12.406;2023-05-07T00:53:05;10.10;99.90
24518;DHT22;12678;51.336;12.406;2023-05-07T00:55:32;10.10;99.90
24518;DHT22;12678;51.336;12.406;2023-05-07T00:57:57;10.20;99.90
24518;DHT22;12678;51.336;12.406;2023-05-07T01:00:23;10.00;99.90
24518;DHT22;12678;51.336;12.406;2023-05-07T01:02:50;10.00;99.90
24518;DHT22;12678;51.336;12.406;2023-05-07T01:05:17;10.10;99.90
24518;DHT22;12678;51.336;12.406;2023-05-07T01:07:44;10.00;99.90
24518;DHT22;12678;51.336;12.406;2023-05-07T01:10:11;9.80;99.90
24518;DHT22;12678;51.336;12.406;2023-05-07T01:12:39;9.80;99.90
24518;DHT22;12678;51.336;12.406;2023-05-07T01:15:06;9.90;99.90
24518;DHT22;12678;51.336;12.406;2023-05-07T01:17:37;9.90;99.90
24518;DHT22;12678;51.336;12.406;2023-05-07T01:20:05;10.00;99.90
24518;DHT22;12678;51.336;12.406;2023-05-07T01:22:35;10.00;99.90
24518;DHT22;12678;51.336;12.406;2023-05-07T01:25:04;9.80;99.90
24518;DHT22;12678;51.336;12.406;2023-05-07T01:27:30;9.90;99.90
24518;DHT22;12678;51.336;12.406;2023-05-07T01:29:55;10.00;99.90
24518;DHT22;12678;51.336;12.406;2023-05-07T01:32:27;10.00;99.90
24518;DHT22;12678;51.336;12.406;2023-05-07T01:34:55;9.90;99.90
24518;DHT22;12678;51.336;12.406;2023-05-07T01:37:22;9.80;99.90
24518;DHT22;12678;51.336;12.406;2023-05-07T01:39:48;9.80;99.90
24518;DHT22;12678;51.336;12.406;2023-05-07T01:42:14;9.80;99.90
24518;DHT22;12678;51.336;12.406;2023-05-07T01:44:40;9.80;99.90
24518;DHT22;12678;51.336;12.406;2023-05-07T01:47:06;9.80;99.90
24518;DHT22;12678;51.336;12.406;2023-05-07T01:49:32;9.80;99.90
24518;DHT22;12678;51.336;12.406;2023-05-07T01:51:58;9.70;99.90
24518;DHT22;12678;51.336;12.406;2023-05-07T01:54:27;9.80;99.90
24518;DHT22;12678;51.336;12.406;2023-05-07T01:56:54;9.80;99.90
24518;DHT22;12678;51.336;12.406;2023-05-07T01:59:20;9.70;99.90
24518;DHT22;12678;51.336;12.406;2023-05-07T02:01:46;9.80;99.90
24518;DHT22;12678;51.336;12.406;2023-05-07T02:04:11;9.80;99.90
24518;DHT22;12678;51.336;12.406;2023-05-07T02:06:37;9.60;99.90
24518;DHT22;12678;51.336;12.406;2023-05-07T02:09:03;9.60;99.90
24518;DHT22;12678;51.336;12.406;2023-05-07T02:11:29;9.60;99.90
24518;DHT22;12678;51.336;12.406;2023-05-07T02:13:54;9.60;99.90
24518;DHT22;12678;51.336;12.406;2023-05-07T02:16:20;9.60;99.90
24518;DHT22;12678;51.336;12.406;2023-05-07T02:18:47;9.70;99.90
24518;DHT22;12678;51.336;12.406;2023-05-07T02:21:12;9.60;99.90
24518;DHT22;12678;51.336;12.406;2023-05-07T02:23:38;9.70;99.90
24518;DHT22;12678;51.336;12.406;2023-05-07T02:26:04;9.70;99.90
24518;DHT22;12678;51.336;12.406;2023-05-07T02:28:30;9.70;99.90
24518;DHT22;12678;51.336;12.406;2023-05-07T02:30:55;9.70;99.90
24518;DHT22;12678;51.336;12.406;2023-05-07T02:33:23;9.60;99.90
24518;DHT22;12678;51.336;12.406;2023-05-07T02:35:49;9.70;99.90
24518;DHT22;12678;51.336;12.406;2023-05-07T02:38:15;9.60;99.90
24518;DHT22;12678;51.336;12.406;2023-05-07T02:40:40;9.70;99.90
24518;DHT22;12678;51.336;12.406;2023-05-07T02:43:06;9.80;99.90
24518;DHT22;12678;51.336;12.406;2023-05-07T02:45:32;9.90;99.90
24518;DHT22;12678;51.336;12.406;2023-05-07T02:47:58;9.80;99.90
24518;DHT22;12678;51.336;12.406;2023-05-07T02:50:24;9.80;99.90
24518;DHT22;12678;51.336;12.406;2023-05-07T02:52:50;9.80;99.90
24518;DHT22;12678;51.336;12.406;2023-05-07T02:55:16;9.80;99.90
24518;DHT22;12678;51.336;12.406;2023-05-07T02:57:41;9.90;99.90
24518;DHT22;12678;51.336;12.406;2023-05-07T03:00:14;9.90;99.90
24518;DHT22;12678;51.336;12.406;2023-05-07T03:02:41;9.90;99.90
24518;DHT22;12678;51.336;12.406;2023-05-07T03:05:07;9.90;99.90
24518;DHT22;12678;51.336;12.406;2023-05-07T03:07:34;9.90;99.90
24518;DHT22;12678;51.336;12.406;2023-05-07T03:10:00;9.80;99.90
24518;DHT22;12678;51.336;12.406;2023-05-07T03:12:26;9.80;99.90
24518;DHT22;12678;51.336;12.406;2023-05-07T03:14:51;9.60;99.90
24518;DHT22;12678;51.336;12.406;2023-05-07T03:17:17;9.60;99.90
24518;DHT22;12678;51.336;12.406;2023-05-07T03:19:42;9.70;99.90
24518;DHT22;12678;51.336;12.406;2023-05-07T03:22:08;9.70;99.90
24518;DHT22;12678;51.336;12.406;2023-05-07T03:24:34;9.60;99.90
24518;DHT22;12678;51.336;12.406;2023-05-07T03:27:00;9.60;99.90
24518;DHT22;12678;51.336;12.406;2023-05-07T03:29:26;9.70;99.90
24518;DHT22;12678;51.336;12.406;2023-05-07T03:31:52;9.80;99.90
24518;DHT22;12678;51.336;12.406;2023-05-07T03:34:17;9.80;99.90
24518;DHT22;12678;51.336;12.406;2023-05-07T03:36:50;9.80;99.90
24518;DHT22;12678;51.336;12.406;2023-05-07T03:39:16;9.90;99.90
24518;DHT22;12678;51.336;12.406;2023-05-07T03:41:42;10.00;99.90
24518;DHT22;12678;51.336;12.406;2023-05-07T03:44:07;9.90;99.90
24518;DHT22;12678;51.336;12.406;2023-05-07T03:46:33;10.00;99.90
24518;DHT22;12678;51.336;12.406;2023-05-07T03:49:00;9.90;99.90
24518;DHT22;12678;51.336;12.406;2023-05-07T03:51:25;9.90;99.90
24518;DHT22;12678;51.336;12.406;2023-05-07T03:53:51;9.80;99.90
24518;DHT22;12678;51.336;12.406;2023-05-07T03:56:19;9.70;99.90
24518;DHT22;12678;51.336;12.406;2023-05-07T03:58:44;9.80;99.90
24518;DHT22;12678;51.336;12.406;2023-05-07T04:01:10;9.70;99.90
24518;DHT22;12678;51.336;12.406;2023-05-07T04:03:37;9.80;99.90
24518;DHT22;12678;51.336;12.406;2023-05-07T04:06:02;9.50;99.90
24518;DHT22;12678;51.336;12.406;2023-05-07T04:08:28;9.50;99.90
24518;DHT22;12678;51.336;12.406;2023-05-07T04:10:57;9.60;99.90
24518;DHT22;12678;51.336;12.406;2023-05-07T04:13:24;9.70;99.90
24518;DHT22;12678;51.336;12.406;2023-05-07T04:15:51;9.70;99.90
24518;DHT22;12678;51.336;12.406;2023-05-07T04:18:17;9.90;99.90
24518;DHT22;12678;51.336;12.406;2023-05-07T04:20:43;9.90;99.90
24518;DHT22;12678;51.336;12.406;2023-05-07T04:23:09;10.00;99.90
24518;DHT22;12678;51.336;12.406;2023-05-07T04:25:34;9.90;99.90
24518;DHT22;12678;51.336;12.406;2023-05-07T04:28:01;9.80;99.90
24518;DHT22;12678;51.336;12.406;2023-05-07T04:30:26;9.80;99.90
24518;DHT22;12678;51.336;12.406;2023-05-07T04:32:52;9.80;99.90
24518;DHT22;12678;51.336;12.406;2023-05-07T04:35:18;9.90;99.90
24518;DHT22;12678;51.336;12.406;2023-05-07T04:37:44;10.00;99.90
24518;DHT22;12678;51.336;12.406;2023-05-07T04:40:10;10.00;99.90
24518;DHT22;12678;51.336;12.406;2023-05-07T04:42:36;10.10;99.90
24518;DHT22;12678;51.336;12.406;2023-05-07T04:45:02;10.10;99.90
24518;DHT22;12678;51.336;12.406;2023-05-07T04:47:27;10.10;99.90
24518;DHT22;12678;51.336;12.406;2023-05-07T04:49:53;10.10;99.90
24518;DHT22;12678;51.336;12.406;2023-05-07T04:52:19;10.10;99.90
24518;DHT22;12678;51.336;12.406;2023-05-07T04:54:44;9.90;99.90
24518;DHT22;12678;51.336;12.406;2023-05-07T04:57:10;10.00;99.90
24518;DHT22;12678;51.336;12.406;2023-05-07T04:59:36;9.90;99.90
24518;DHT22;12678;51.336;12.406;2023-05-07T05:02:02;9.80;99.90
24518;DHT22;12678;51.336;12.406;2023-05-07T05:04:29;9.80;99.90
24518;DHT22;12678;51.336;12.406;2023-05-07T05:06:55;9.70;99.90
24518;DHT22;12678;51.336;12.406;2023-05-07T05:09:20;9.70;99.90
24518;DHT22;12678;51.336;12.406;2023-05-07T05:11:46;9.70;99.90
24518;DHT22;12678;51.336;12.406;2023-05-07T05:14:12;9.80;99.90
24518;DHT22;12678;51.336;12.406;2023-05-07T05:16:37;9.80;99.90
24518;DHT22;12678;51.336;12.406;2023-05-07T05:19:03;9.90;99.90
24518;DHT22;12678;51.336;12.406;2023-05-07T05:21:28;9.80;99.90
24518;DHT22;12678;51.336;12.406;2023-05-07T05:23:54;9.80;99.90
24518;DHT22;12678;51.336;12.406;2023-05-07T05:26:20;9.70;99.90
24518;DHT22;12678;51.336;12.406;2023-05-07T05:28:46;9.80;99.90
24518;DHT22;12678;51.336;12.406;2023-05-07T05:31:12;9.70;99.90
24518;DHT22;12678;51.336;12.406;2023-05-07T05:33:38;9.80;99.90
24518;DHT22;12678;51.336;12.406;2023-05-07T05:36:04;9.80;99.90
24518;DHT22;12678;51.336;12.406;2023-05-07T05:38:29;9.70;99.90
24518;DHT22;12678;51.336;12.406;2023-05-07T05:40:55;9.60;99.90
24518;DHT22;12678;51.336;12.406;2023-05-07T05:43:20;9.70;99.90
24518;DHT22;12678;51.336;12.406;2023-05-07T05:45:46;9.80;99.90
24518;DHT22;12678;51.336;12.406;2023-05-07T05:48:12;9.90;99.90
24518;DHT22;12678;51.336;12.406;2023-05-07T05:50:37;9.90;99.90
24518;DHT22;12678;51.336;12.406;2023-05-07T05:53:03;9.90;99.90
24518;DHT22;12678;51.336;12.406;2023-05-07T05:55:29;9.90;99.90
24518;DHT22;12678;51.336;12.406;2023-05-07T05:57:54;10.00;99.90
24518;DHT22;12678;51.336;12.406;2023-05-07T06:00:20;10.00;99.90
24518;DHT22;12678;51.336;12.406;2023-05-07T06:02:48;10.00;99.90
24518;DHT22;12678;51.336;12.406;2023-05-07T06:05:14;9.90;99.90
24518;DHT22;12678;51.336;12.406;2023-05-07T06:07:40;9.80;99.90
24518;DHT22;12678;51.336;12.406;2023-05-07T06:10:06;9.70;99.90
24518;DHT22;12678;51.336;12.406;2023-05-07T06:12:32;9.80;99.90
24518;DHT22;12678;51.336;12.406;2023-05-07T06:14:58;9.80;99.90
24518;DHT22;12678;51.336;12.406;2023-05-07T06:17:24;9.90;99.90
24518;DHT22;12678;51.336;12.406;2023-05-07T06:19:50;9.90;99.90
24518;DHT22;12678;51.336;12.406;2023-05-07T06:22:16;9.90;99.90
24518;DHT22;12678;51.336;12.406;2023-05-07T06:24:42;9.90;99.90
24518;DHT22;12678;51.336;12.406;2023-05-07T06:27:08;10.00;99.90
24518;DHT22;12678;51.336;12.406;2023-05-07T06:29:34;10.00;99.90
24518;DHT22;12678;51.336;12.406;2023-05-07T06:32:07;9.90;99.90
24518;DHT22;12678;51.336;12.406;2023-05-07T06:34:33;9.90;99.90
24518;DHT22;12678;51.336;12.406;2023-05-07T06:36:59;9.80;99.90
24518;DHT22;12678;51.336;12.406;2023-05-07T06:39:24;9.90;99.90
24518;DHT22;12678;51.336;12.406;2023-05-07T06:41:50;10.00;99.90
24518;DHT22;12678;51.336;12.406;2023-05-07T06:44:15;10.10;99.90
24518;DHT22;12678;51.336;12.406;2023-05-07T06:46:41;10.00;99.90
24518;DHT22;12678;51.336;12.406;2023-05-07T06:49:07;10.00;99.90
24518;DHT22;12678;51.336;12.406;2023-05-07T06:51:32;10.00;99.90
24518;DHT22;12678;51.336;12.406;2023-05-07T06:53:58;10.00;99.90
24518;DHT22;12678;51.336;12.406;2023-05-07T06:56:24;10.10;99.90
24518;DHT22;12678;51.336;12.406;2023-05-07T06:58:50;10.10;99.90
24518;DHT22;12678;51.336;12.406;2023-05-07T07:01:16;10.10;99.90
24518;DHT22;12678;51.336;12.406;2023-05-07T07:03:41;10.20;99.90
24518;DHT22;12678;51.336;12.406;2023-05-07T07:06:07;10.20;99.90
24518;DHT22;12678;51.336;12.406;2023-05-07T07:08:32;10.20;99.90
24518;DHT22;12678;51.336;12.406;2023-05-07T07:10:58;10.20;99.90
24518;DHT22;12678;51.336;12.406;2023-05-07T07:13:24;10.30;99.90
24518;DHT22;12678;51.336;12.406;2023-05-07T07:15:50;10.30;99.90
24518;DHT22;12678;51.336;12.406;2023-05-07T07:18:15;10.50;99.90
24518;DHT22;12678;51.336;12.406;2023-05-07T07:20:41;10.60;99.90
24518;DHT22;12678;51.336;12.406;2023-05-07T07:23:07;10.50;99.90
24518;DHT22;12678;51.336;12.406;2023-05-07T07:25:32;10.80;99.90
24518;DHT22;12678;51.336;12.406;2023-05-07T07:27:59;10.80;99.90
24518;DHT22;12678;51.336;12.406;2023-05-07T07:30:25;10.70;99.90
24518;DHT22;12678;51.336;12.406;2023-05-07T07:32:51;10.60;99.90
24518;DHT22;12678;51.336;12.406;2023-05-07T07:35:18;10.50;99.90
24518;DHT22;12678;51.336;12.406;2023-05-07T07:37:44;10.50;99.90
24518;DHT22;12678;51.336;12.406;2023-05-07T07:40:11;10.70;99.90
24518;DHT22;12678;51.336;12.406;2023-05-07T07:42:37;10.90;99.90
24518;DHT22;12678;51.336;12.406;2023-05-07T07:45:02;10.90;99.90
24518;DHT22;12678;51.336;12.406;2023-05-07T07:47:28;10.90;99.90
24518;DHT22;12678;51.336;12.406;2023-05-07T07:49:54;10.80;99.90
24518;DHT22;12678;51.336;12.406;2023-05-07T07:52:20;11.00;99.90
24518;DHT22;12678;51.336;12.406;2023-05-07T07:54:45;11.10;99.90
24518;DHT22;12678;51.336;12.406;2023-05-07T07:57:11;11.10;99.90
24518;DHT22;12678;51.336;12.406;2023-05-07T07:59:37;11.20;99.90
24518;DHT22;12678;51.336;12.406;2023-05-07T08:02:02;11.30;99.90
24518;DHT22;12678;51.336;12.406;2023-05-07T08:04:28;11.30;99.90
24518;DHT22;12678;51.336;12.406;2023-05-07T08:06:53;11.20;99.90
24518;DHT22;12678;51.336;12.406;2023-05-07T08:09:22;11.00;99.90
24518;DHT22;12678;51.336;12.406;2023-05-07T08:11:48;10.90;99.90
24518;DHT22;12678;51.336;12.406;2023-05-07T08:14:14;10.80;99.90
24518;DHT22;12678;51.336;12.406;2023-05-07T08:16:41;10.90;99.90
24518;DHT22;12678;51.336;12.406;2023-05-07T08:19:06;10.90;99.90
24518;DHT22;12678;51.336;12.406;2023-05-07T08:21:32;10.80;99.90
24518;DHT22;12678;51.336;12.406;2023-05-07T08:23:57;10.80;99.90
24518;DHT22;12678;51.336;12.406;2023-05-07T08:26:23;10.90;99.90
24518;DHT22;12678;51.336;12.406;2023-05-07T08:28:48;10.90;99.90
24518;DHT22;12678;51.336;12.406;2023-05-07T08:31:14;11.00;99.90
24518;DHT22;12678;51.336;12.406;2023-05-07T08:33:40;11.00;99.90
24518;DHT22;12678;51.336;12.406;2023-05-07T08:36:05;11.10;99.90
24518;DHT22;12678;51.336;12.406;2023-05-07T08:38:31;11.00;99.90
24518;DHT22;12678;51.336;12.406;2023-05-07T08:40:57;11.00;99.90
24518;DHT22;12678;51.336;12.406;2023-05-07T08:43:26;10.80;99.90
24518;DHT22;12678;51.336;12.406;2023-05-07T08:45:54;10.90;99.90
24518;DHT22;12678;51.336;12.406;2023-05-07T08:48:25;10.80;99.90
24518;DHT22;12678;51.336;12.406;2023-05-07T08:50:51;10.70;99.90
24518;DHT22;12678;51.336;12.406;2023-05-07T08:53:17;10.90;99.90
24518;DHT22;12678;51.336;12.406;2023-05-07T08:55:43;10.90;99.90
24518;DHT22;12678;51.336;12.406;2023-05-07T08:58:10;11.00;99.90
24518;DHT22;12678;51.336;12.406;2023-05-07T09:00:36;10.80;99.90
24518;DHT22;12678;51.336;12.406;2023-05-07T09:03:02;10.90;99.90
24518;DHT22;12678;51.336;12.406;2023-05-07T09:05:28;10.80;99.90
24518;DHT22;12678;51.336;12.406;2023-05-07T09:07:53;10.90;99.90
24518;DHT22;12678;51.336;12.406;2023-05-07T09:10:21;11.20;99.90
24518;DHT22;12678;51.336;12.406;2023-05-07T09:12:47;11.20;99.90
24518;DHT22;12678;51.336;12.406;2023-05-07T09:15:12;11.20;99.90
24518;DHT22;12678;51.336;12.406;2023-05-07T09:17:38;11.10;99.90
24518;DHT22;12678;51.336;12.406;2023-05-07T09:20:06;11.10;99.90
24518;DHT22;12678;51.336;12.406;2023-05-07T09:22:33;11.20;99.90
24518;DHT22;12678;51.336;12.406;2023-05-07T09:24:59;11.20;99.90
24518;DHT22;12678;51.336;12.406;2023-05-07T09:27:25;11.10;99.90
24518;DHT22;12678;51.336;12.406;2023-05-07T09:29:51;11.10;99.90
24518;DHT22;12678;51.336;12.406;2023-05-07T09:32:17;11.20;99.90
24518;DHT22;12678;51.336;12.406;2023-05-07T09:34:43;11.20;99.90
24518;DHT22;12678;51.336;12.406;2023-05-07T09:37:09;11.20;99.90
24518;DHT22;12678;51.336;12.406;2023-05-07T09:39:41;11.10;99.90
24518;DHT22;12678;51.336;12.406;2023-05-07T09:42:07;11.30;99.90
24518;DHT22;12678;51.336;12.406;2023-05-07T09:44:34;11.30;99.90
24518;DHT22;12678;51.336;12.406;2023-05-07T09:47:00;11.40;99.90
24518;DHT22;12678;51.336;12.406;2023-05-07T09:49:29;11.40;99.90
24518;DHT22;12678;51.336;12.406;2023-05-07T09:51:55;11.40;99.90
24518;DHT22;12678;51.336;12.406;2023-05-07T09:54:22;11.10;99.90
24518;DHT22;12678;51.336;12.406;2023-05-07T09:56:48;11.20;99.90
24518;DHT22;12678;51.336;12.406;2023-05-07T09:59:15;11.20;99.90
24518;DHT22;12678;51.336;12.406;2023-05-07T10:01:43;11.10;99.90
24518;DHT22;12678;51.336;12.406;2023-05-07T10:04:10;11.40;99.90
24518;DHT22;12678;51.336;12.406;2023-05-07T10:06:37;11.40;99.90
24518;DHT22;12678;51.336;12.406;2023-05-07T10:09:04;11.50;99.90
24518;DHT22;12678;51.336;12.406;2023-05-07T10:11:36;11.50;99.90
24518;DHT22;12678;51.336;12.406;2023-05-07T10:14:03;11.50;99.90
24518;DHT22;12678;51.336;12.406;2023-05-07T10:16:32;11.40;99.90
24518;DHT22;12678;51.336;12.406;2023-05-07T10:19:02;11.50;99.90
24518;DHT22;12678;51.336;12.406;2023-05-07T10:21:30;11.40;99.90
24518;DHT22;12678;51.336;12.406;2023-05-07T10:23:58;11.40;99.90
24518;DHT22;12678;51.336;12.406;2023-05-07T10:26:25;11.60;99.90
24518;DHT22;12678;51.336;12.406;2023-05-07T10:29:01;11.50;99.90
24518;DHT22;12678;51.336;12.406;2023-05-07T10:31:54;11.50;99.90
24518;DHT22;12678;51.336;12.406;2023-05-07T10:34:40;11.40;99.90
24518;DHT22;12678;51.336;12.406;2023-05-07T10:37:07;11.50;99.90
24518;DHT22;12678;51.336;12.406;2023-05-07T10:39:34;11.60;99.90
24518;DHT22;12678;51.336;12.406;2023-05-07T10:42:13;11.60;99.90
24518;DHT22;12678;51.336;12.406;2023-05-07T10:44:39;11.60;99.90
24518;DHT22;12678;51.336;12.406;2023-05-07T10:49:34;11.70;99.90
24518;DHT22;12678;51.336;12.406;2023-05-07T10:52:20;11.50;99.90
24518;DHT22;12678;51.336;12.406;2023-05-07T10:54:47;11.50;99.90
24518;DHT22;12678;51.336;12.406;2023-05-07T10:59:56;11.60;99.90
24518;DHT22;12678;51.336;12.406;2023-05-07T11:02:21;11.60;99.90
24518;DHT22;12678;51.336;12.406;2023-05-07T11:05:19;11.70;99.90
24518;DHT22;12678;51.336;12.406;2023-05-07T11:07:54;11.80;99.90
24518;DHT22;12678;51.336;12.406;2023-05-07T11:10:20;11.60;99.90
24518;DHT22;12678;51.336;12.406;2023-05-07T11:12:47;11.60;99.90
24518;DHT22;12678;51.336;12.406;2023-05-07T11:15:13;11.70;99.90
24518;DHT22;12678;51.336;12.406;2023-05-07T11:17:59;11.70;99.90
24518;DHT22;12678;51.336;12.406;2023-05-07T11:20:50;12.00;99.90
24518;DHT22;12678;51.336;12.406;2023-05-07T11:26:14;12.10;99.90
24518;DHT22;12678;51.336;12.406;2023-05-07T11:28:44;12.10;99.90
24518;DHT22;12678;51.336;12.406;2023-05-07T11:31:10;12.00;99.90
24518;DHT22;12678;51.336;12.406;2023-05-07T11:33:37;11.90;99.90
24518;DHT22;12678;51.336;12.406;2023-05-07T11:36:04;11.90;99.90
24518;DHT22;12678;51.336;12.406;2023-05-07T11:38:33;11.90;99.90
24518;DHT22;12678;51.336;12.406;2023-05-07T11:41:00;12.10;99.90
24518;DHT22;12678;51.336;12.406;2023-05-07T11:43:34;12.30;99.90
24518;DHT22;12678;51.336;12.406;2023-05-07T11:46:11;12.30;99.90
24518;DHT22;12678;51.336;12.406;2023-05-07T11:48:38;12.20;99.90
24518;DHT22;12678;51.336;12.406;2023-05-07T11:51:05;12.30;99.90
24518;DHT22;12678;51.336;12.406;2023-05-07T11:53:42;12.20;99.90
24518;DHT22;12678;51.336;12.406;2023-05-07T11:56:09;12.20;99.90
24518;DHT22;12678;51.336;12.406;2023-05-07T11:58:35;12.00;99.90
24518;DHT22;12678;51.336;12.406;2023-05-07T12:01:01;11.90;99.90
24518;DHT22;12678;51.336;12.406;2023-05-07T12:03:27;12.30;99.90
24518;DHT22;12678;51.336;12.406;2023-05-07T12:05:52;12.30;99.90
24518;DHT22;12678;51.336;12.406;2023-05-07T12:08:20;12.30;99.90
24518;DHT22;12678;51.336;12.406;2023-05-07T12:10:48;12.30;99.90
24518;DHT22;12678;51.336;12.406;2023-05-07T12:13:20;12.30;99.90
24518;DHT22;12678;51.336;12.406;2023-05-07T12:15:46;12.40;99.90
24518;DHT22;12678;51.336;12.406;2023-05-07T12:18:12;12.30;99.90
24518;DHT22;12678;51.336;12.406;2023-05-07T12:20:39;12.30;99.90
24518;DHT22;12678;51.336;12.406;2023-05-07T12:23:04;12.40;99.90
24518;DHT22;12678;51.336;12.406;2023-05-07T12:25:38;12.40;99.90
24518;DHT22;12678;51.336;12.406;2023-05-07T12:28:05;12.50;99.90
24518;DHT22;12678;51.336;12.406;2023-05-07T12:30:38;12.80;99.90
24518;DHT22;12678;51.336;12.406;2023-05-07T12:33:04;12.80;99.90
24518;DHT22;12678;51.336;12.406;2023-05-07T12:35:32;12.40;99.90
24518;DHT22;12678;51.336;12.406;2023-05-07T12:37:59;12.60;99.90
24518;DHT22;12678;51.336;12.406;2023-05-07T12:40:37;12.40;99.90
24518;DHT22;12678;51.336;12.406;2023-05-07T12:43:03;12.20;99.90
24518;DHT22;12678;51.336;12.406;2023-05-07T12:45:28;12.20;99.90
24518;DHT22;12678;51.336;12.406;2023-05-07T12:47:54;12.30;99.90
24518;DHT22;12678;51.336;12.406;2023-05-07T12:50:20;12.50;99.90
24518;DHT22;12678;51.336;12.406;2023-05-07T12:52:48;12.70;99.90
24518;DHT22;12678;51.336;12.406;2023-05-07T12:55:15;12.90;99.90
24518;DHT22;12678;51.336;12.406;2023-05-07T12:57:47;13.00;99.90
24518;DHT22;12678;51.336;12.406;2023-05-07T13:00:13;12.90;99.90
24518;DHT22;12678;51.336;12.406;2023-05-07T13:02:41;13.10;99.90
24518;DHT22;12678;51.336;12.406;2023-05-07T13:05:07;12.90;99.90
24518;DHT22;12678;51.336;12.406;2023-05-07T13:07:33;13.00;99.90
24518;DHT22;12678;51.336;12.406;2023-05-07T13:10:00;12.90;99.90
24518;DHT22;12678;51.336;12.406;2023-05-07T13:12:25;13.10;99.90
24518;DHT22;12678;51.336;12.406;2023-05-07T13:14:51;13.30;99.90
24518;DHT22;12678;51.336;12.406;2023-05-07T13:17:16;13.40;99.90
24518;DHT22;12678;51.336;12.406;2023-05-07T13:19:43;13.50;99.90
24518;DHT22;12678;51.336;12.406;2023-05-07T13:22:09;13.40;99.90
24518;DHT22;12678;51.336;12.406;2023-05-07T13:24:35;13.20;99.90
24518;DHT22;12678;51.336;12.406;2023-05-07T13:27:01;13.20;99.90
24518;DHT22;12678;51.336;12.406;2023-05-07T13:29:27;13.40;99.90
24518;DHT22;12678;51.336;12.406;2023-05-07T13:31:58;13.40;99.90
24518;DHT22;12678;51.336;12.406;2023-05-07T13:34:23;13.30;99.90
24518;DHT22;12678;51.336;12.406;2023-05-07T13:36:49;13.20;99.90
24518;DHT22;12678;51.336;12.406;2023-05-07T13:39:15;13.30;99.90
24518;DHT22;12678;51.336;12.406;2023-05-07T13:41:41;13.30;99.90
24518;DHT22;12678;51.336;12.406;2023-05-07T13:44:06;13.20;99.90
24518;DHT22;12678;51.336;12.406;2023-05-07T13:46:32;13.10;99.90
24518;DHT22;12678;51.336;12.406;2023-05-07T13:48:58;13.20;99.90
24518;DHT22;12678;51.336;12.406;2023-05-07T13:51:24;13.40;99.90
24518;DHT22;12678;51.336;12.406;2023-05-07T13:53:49;13.30;99.90
24518;DHT22;12678;51.336;12.406;2023-05-07T13:56:15;13.40;99.90
24518;DHT22;12678;51.336;12.406;2023-05-07T13:58:41;13.30;99.90
24518;DHT22;12678;51.336;12.406;2023-05-07T14:01:07;13.30;99.90
24518;DHT22;12678;51.336;12.406;2023-05-07T14:03:32;13.20;99.90
24518;DHT22;12678;51.336;12.406;2023-05-07T14:05:59;13.20;99.90
24518;DHT22;12678;51.336;12.406;2023-05-07T14:08:27;13.30;99.90
24518;DHT22;12678;51.336;12.406;2023-05-07T14:10:52;13.20;99.90
24518;DHT22;12678;51.336;12.406;2023-05-07T14:13:18;13.30;99.90
24518;DHT22;12678;51.336;12.406;2023-05-07T14:15:44;13.40;99.90
24518;DHT22;12678;51.336;12.406;2023-05-07T14:18:14;13.40;99.90
24518;DHT22;12678;51.336;12.406;2023-05-07T14:20:40;13.40;99.90
24518;DHT22;12678;51.336;12.406;2023-05-07T14:23:06;13.30;99.90
24518;DHT22;12678;51.336;12.406;2023-05-07T14:25:32;13.40;99.90
24518;DHT22;12678;51.336;12.406;2023-05-07T14:27:57;13.40;99.90
24518;DHT22;12678;51.336;12.406;2023-05-07T14:30:23;13.30;99.90
24518;DHT22;12678;51.336;12.406;2023-05-07T14:32:50;13.50;99.90
24518;DHT22;12678;51.336;12.406;2023-05-07T14:35:16;13.60;99.90
24518;DHT22;12678;51.336;12.406;2023-05-07T14:37:43;13.70;99.90
24518;DHT22;12678;51.336;12.406;2023-05-07T14:40:09;13.60;99.90
24518;DHT22;12678;51.336;12.406;2023-05-07T14:42:35;13.60;99.90
24518;DHT22;12678;51.336;12.406;2023-05-07T14:45:01;13.60;99.90
24518;DHT22;12678;51.336;12.406;2023-05-07T14:47:27;13.60;99.90
24518;DHT22;12678;51.336;12.406;2023-05-07T14:49:52;13.70;99.90
24518;DHT22;12678;51.336;12.406;2023-05-07T14:52:18;13.70;99.90
24518;DHT22;12678;51.336;12.406;2023-05-07T14:54:44;13.70;99.90
24518;DHT22;12678;51.336;12.406;2023-05-07T14:57:10;13.90;99.90
24518;DHT22;12678;51.336;12.406;2023-05-07T14:59:38;14.00;99.90
24518;DHT22;12678;51.336;12.406;2023-05-07T15:02:05;13.90;99.90
24518;DHT22;12678;51.336;12.406;2023-05-07T15:04:33;13.90;99.90
24518;DHT22;12678;51.336;12.406;2023-05-07T15:06:59;13.90;99.90
24518;DHT22;12678;51.336;12.406;2023-05-07T15:09:25;13.80;99.90
24518;DHT22;12678;51.336;12.406;2023-05-07T15:11:51;13.90;99.90
24518;DHT22;12678;51.336;12.406;2023-05-07T15:14:17;13.80;99.90
24518;DHT22;12678;51.336;12.406;2023-05-07T15:16:43;13.90;99.90
24518;DHT22;12678;51.336;12.406;2023-05-07T15:19:09;13.80;99.90
24518;DHT22;12678;51.336;12.406;2023-05-07T15:21:34;13.60;99.90
24518;DHT22;12678;51.336;12.406;2023-05-07T15:24:01;13.60;99.90
24518;DHT22;12678;51.336;12.406;2023-05-07T15:26:27;13.70;99.90